sensor_id;sensor_type;location;lat;lon;timestamp;temperature;humidity
27779;DHT22;30234;48.090;11.464;2023-08-08T00:00:16;10.70;99.90
27779;DHT22;30234;48.090;11.464;2023-08-08T00:04:17;10.80;99.90
27779;DHT22;30234;48.090;11.464;2023-08-08T00:08:17;10.80;99.90
27779;DHT22;30234;48.090;11.464;2023-08-08T00:12:18;10.90;99.90
27779;DHT22;30234;48.090;11.464;2023-08-08T00:16:19;11.10;99.90
27779;DHT22;30234;48.090;11.464;2023-08-08T00:20:20;11.10;99.90
27779;DHT22;30234;48.090;11.464;2023-08-08T00:24:21;11.10;99.90
27779;DHT22;30234;48.090;11.464;2023-08-08T00:28:22;11.20;99.90
27779;DHT22;30234;48.090;11.464;2023-08-08T00:32:23;11.30;99.90
27779;DHT22;30234;48.090;11.464;2023-08-08T00:36:23;11.30;99.90
27779;DHT22;30234;48.090;11.464;2023-08-08T00:40:24;11.40;99.90
27779;DHT22;30234;48.090;11.464;2023-08-08T00:44:25;11.40;99.90
27779;DHT22;30234;48.090;11.464;2023-08-08T00:48:26;11.60;99.90
27779;DHT22;30234;48.090;11.464;2023-08-08T00:52:27;11.50;99.90
27779;DHT22;30234;48.090;11.464;2023-08-08T00:56:29;11.70;99.90
27779;DHT22;30234;48.090;11.464;2023-08-08T01:00:30;11.50;99.90
27779;DHT22;30234;48.090;11.464;2023-08-08T01:04:31;11.40;99.90
27779;DHT22;30234;48.090;11.464;2023-08-08T01:08:39;11.20;99.90
27779;DHT22;30234;48.090;11.464;2023-08-08T01:12:52;11.20;99.90
27779;DHT22;30234;48.090;11.464;2023-08-08T01:16:56;11.00;99.90
27779;DHT22;30234;48.090;11.464;2023-08-08T01:21:00;10.70;99.90
27779;DHT22;30234;48.090;11.464;2023-08-08T01:25:01;10.70;99.90
27779;DHT22;30234;48.090;11.464;2023-08-08T01:29:03;10.70;99.90
27779;DHT22;30234;48.090;11.464;2023-08-08T01:33:04;10.60;99.90
27779;DHT22;30234;48.090;11.464;2023-08-08T01:41:42;10.40;99.90
27779;DHT22;30234;48.090;11.464;2023-08-08T01:45:44;10.20;99.90
27779;DHT22;30234;48.090;11.464;2023-08-08T01:49:45;9.80;99.90
27779;DHT22;30234;48.090;11.464;2023-08-08T01:53:46;9.60;99.90
27779;DHT22;30234;48.090;11.464;2023-08-08T01:57:47;9.50;99.90
27779;DHT22;30234;48.090;11.464;2023-08-08T02:01:48;9.40;99.90
27779;DHT22;30234;48.090;11.464;2023-08-08T02:05:49;9.30;99.90
27779;DHT22;30234;48.090;11.464;2023-08-08T02:09:50;9.20;99.90
27779;DHT22;30234;48.090;11.464;2023-08-08T02:13:51;9.20;99.90
27779;DHT22;30234;48.090;11.464;2023-08-08T02:17:52;9.00;99.90
27779;DHT22;30234;48.090;11.464;2023-08-08T02:21:53;9.00;99.90
27779;DHT22;30234;48.090;11.464;2023-08-08T02:25:54;9.00;99.90
27779;DHT22;30234;48.090;11.464;2023-08-08T02:29:55;9.10;99.90
27779;DHT22;30234;48.090;11.464;2023-08-08T02:33:57;9.20;99.90
27779;DHT22;30234;48.090;11.464;2023-08-08T02:37:58;9.10;99.90
27779;DHT22;30234;48.090;11.464;2023-08-08T02:41:59;8.90;99.90
27779;DHT22;30234;48.090;11.464;2023-08-08T02:46:00;8.70;99.90
27779;DHT22;30234;48.090;11.464;2023-08-08T02:50:01;8.70;99.90
27779;DHT22;30234;48.090;11.464;2023-08-08T02:54:02;8.50;99.90
27779;DHT22;30234;48.090;11.464;2023-08-08T02:58:03;8.30;99.90
27779;DHT22;30234;48.090;11.464;2023-08-08T03:02:04;8.30;99.90
27779;DHT22;30234;48.090;11.464;2023-08-08T03:06:05;8.40;99.90
27779;DHT22;30234;48.090;11.464;2023-08-08T03:10:06;8.20;99.90
27779;DHT22;30234;48.090;11.464;2023-08-08T03:14:08;8.10;99.90
27779;DHT22;30234;48.090;11.464;2023-08-08T03:18:09;8.20;99.90
27779;DHT22;30234;48.090;11.464;2023-08-08T03:22:10;8.50;99.90
27779;DHT22;30234;48.090;11.464;2023-08-08T03:26:11;8.90;99.90
27779;DHT22;30234;48.090;11.464;2023-08-08T03:30:12;9.20;99.90
27779;DHT22;30234;48.090;11.464;2023-08-08T03:34:13;9.40;99.90
27779;DHT22;30234;48.090;11.464;2023-08-08T03:38:14;9.60;99.90
27779;DHT22;30234;48.090;11.464;2023-08-08T03:42:15;9.90;99.90
27779;DHT22;30234;48.090;11.464;2023-08-08T03:46:16;9.90;99.90
27779;DHT22;30234;48.090;11.464;2023-08-08T03:50:17;10.00;99.90
27779;DHT22;30234;48.090;11.464;2023-08-08T03:54:18;10.00;99.90
27779;DHT22;30234;48.090;11.464;2023-08-08T03:58:19;10.10;99.90
27779;DHT22;30234;48.090;11.464;2023-08-08T04:02:20;10.20;99.90
27779;DHT22;30234;48.090;11.464;2023-08-08T04:06:21;10.40;99.90
27779;DHT22;30234;48.090;11.464;2023-08-08T04:10:21;10.50;99.90
27779;DHT22;30234;48.090;11.464;2023-08-08T04:14:22;10.70;99.90
27779;DHT22;30234;48.090;11.464;2023-08-08T04:18:23;10.60;99.90
27779;DHT22;30234;48.090;11.464;2023-08-08T04:22:24;10.70;99.90
27779;DHT22;30234;48.090;11.464;2023-08-08T04:26:25;10.60;99.90
27779;DHT22;30234;48.090;11.464;2023-08-08T04:30:26;10.70;99.90
27779;DHT22;30234;48.090;11.464;2023-08-08T04:34:27;10.80;99.90
27779;DHT22;30234;48.090;11.464;2023-08-08T04:38:28;11.10;99.90
27779;DHT22;30234;48.090;11.464;2023-08-08T04:42:30;11.10;99.90
27779;DHT22;30234;48.090;11.464;2023-08-08T04:46:31;11.30;99.90
27779;DHT22;30234;48.090;11.464;2023-08-08T04:50:32;11.40;99.90
27779;DHT22;30234;48.090;11.464;2023-08-08T04:54:33;11.50;99.90
27779;DHT22;30234;48.090;11.464;2023-08-08T04:58:34;11.70;99.90
27779;DHT22;30234;48.090;11.464;2023-08-08T05:02:35;11.90;99.90
27779;DHT22;30234;48.090;11.464;2023-08-08T05:06:36;12.00;99.90
27779;DHT22;30234;48.090;11.464;2023-08-08T05:10:37;12.10;99.90
27779;DHT22;30234;48.090;11.464;2023-08-08T05:14:38;12.20;99.90
27779;DHT22;30234;48.090;11.464;2023-08-08T05:18:39;12.40;99.90
27779;DHT22;30234;48.090;11.464;2023-08-08T05:22:41;12.60;99.90
27779;DHT22;30234;48.090;11.464;2023-08-08T05:26:42;12.80;99.90
27779;DHT22;30234;48.090;11.464;2023-08-08T05:30:43;13.00;99.90
27779;DHT22;30234;48.090;11.464;2023-08-08T05:34:44;13.40;99.90
27779;DHT22;30234;48.090;11.464;2023-08-08T05:38:44;14.10;99.90
27779;DHT22;30234;48.090;11.464;2023-08-08T05:42:45;15.00;99.90
27779;DHT22;30234;48.090;11.464;2023-08-08T05:46:46;15.10;99.90
27779;DHT22;30234;48.090;11.464;2023-08-08T05:50:47;14.60;99.90
27779;DHT22;30234;48.090;11.464;2023-08-08T05:54:48;14.40;99.90
27779;DHT22;30234;48.090;11.464;2023-08-08T05:58:49;14.10;99.90
27779;DHT22;30234;48.090;11.464;2023-08-08T06:02:50;14.00;99.90
27779;DHT22;30234;48.090;11.464;2023-08-08T06:06:51;13.90;99.90
27779;DHT22;30234;48.090;11.464;2023-08-08T06:10:52;15.30;99.90
27779;DHT22;30234;48.090;11.464;2023-08-08T06:14:53;17.20;99.90
27779;DHT22;30234;48.090;11.464;2023-08-08T06:18:54;18.40;99.90
27779;DHT22;30234;48.090;11.464;2023-08-08T06:22:54;20.00;99.90
27779;DHT22;30234;48.090;11.464;2023-08-08T06:26:55;20.50;99.90
27779;DHT22;30234;48.090;11.464;2023-08-08T06:30:59;20.90;99.90
27779;DHT22;30234;48.090;11.464;2023-08-08T06:35:00;20.10;99.90
27779;DHT22;30234;48.090;11.464;2023-08-08T06:39:01;20.40;99.90
27779;DHT22;30234;48.090;11.464;2023-08-08T06:43:21;20.60;99.90
27779;DHT22;30234;48.090;11.464;2023-08-08T06:47:40;19.80;99.90
27779;DHT22;30234;48.090;11.464;2023-08-08T06:51:41;19.50;99.90
27779;DHT22;30234;48.090;11.464;2023-08-08T06:55:42;20.90;99.90
27779;DHT22;30234;48.090;11.464;2023-08-08T06:59:43;22.30;99.90
27779;DHT22;30234;48.090;11.464;2023-08-08T07:03:44;22.50;99.90
27779;DHT22;30234;48.090;11.464;2023-08-08T07:07:45;23.50;98.60
27779;DHT22;30234;48.090;11.464;2023-08-08T07:11:46;24.30;96.10
27779;DHT22;30234;48.090;11.464;2023-08-08T07:15:47;23.50;96.40
27779;DHT22;30234;48.090;11.464;2023-08-08T07:19:48;24.00;95.00
27779;DHT22;30234;48.090;11.464;2023-08-08T07:23:49;24.30;93.90
27779;DHT22;30234;48.090;11.464;2023-08-08T07:27:49;23.90;91.70
27779;DHT22;30234;48.090;11.464;2023-08-08T07:31:52;23.50;92.70
27779;DHT22;30234;48.090;11.464;2023-08-08T07:35:53;23.90;92.00
27779;DHT22;30234;48.090;11.464;2023-08-08T07:39:54;24.20;91.60
27779;DHT22;30234;48.090;11.464;2023-08-08T07:43:55;25.20;88.60
27779;DHT22;30234;48.090;11.464;2023-08-08T07:47:56;23.70;89.40
27779;DHT22;30234;48.090;11.464;2023-08-08T07:51:57;23.00;90.80
27779;DHT22;30234;48.090;11.464;2023-08-08T07:55:58;23.50;91.60
27779;DHT22;30234;48.090;11.464;2023-08-08T07:59:59;25.30;87.00
27779;DHT22;30234;48.090;11.464;2023-08-08T08:04:01;25.20;83.10
27779;DHT22;30234;48.090;11.464;2023-08-08T08:08:03;24.40;81.70
27779;DHT22;30234;48.090;11.464;2023-08-08T08:12:04;24.80;79.40
27779;DHT22;30234;48.090;11.464;2023-08-08T08:16:05;25.40;79.80
27779;DHT22;30234;48.090;11.464;2023-08-08T08:20:08;26.50;74.70
27779;DHT22;30234;48.090;11.464;2023-08-08T08:24:11;26.00;75.90
27779;DHT22;30234;48.090;11.464;2023-08-08T08:28:12;26.10;75.30
27779;DHT22;30234;48.090;11.464;2023-08-08T08:32:13;26.30;73.80
27779;DHT22;30234;48.090;11.464;2023-08-08T08:36:14;26.10;71.20
27779;DHT22;30234;48.090;11.464;2023-08-08T08:40:15;25.90;71.40
27779;DHT22;30234;48.090;11.464;2023-08-08T08:44:16;25.70;72.30
27779;DHT22;30234;48.090;11.464;2023-08-08T08:48:18;25.80;70.20
27779;DHT22;30234;48.090;11.464;2023-08-08T08:52:20;25.40;72.30
27779;DHT22;30234;48.090;11.464;2023-08-08T08:56:21;25.40;71.20
27779;DHT22;30234;48.090;11.464;2023-08-08T09:00:23;25.30;71.80
27779;DHT22;30234;48.090;11.464;2023-08-08T09:04:28;26.40;68.00
27779;DHT22;30234;48.090;11.464;2023-08-08T09:08:30;25.70;68.20
27779;DHT22;30234;48.090;11.464;2023-08-08T09:12:31;25.60;69.10
27779;DHT22;30234;48.090;11.464;2023-08-08T09:16:32;25.60;67.40
27779;DHT22;30234;48.090;11.464;2023-08-08T09:20:33;26.10;67.90
27779;DHT22;30234;48.090;11.464;2023-08-08T09:24:39;27.00;64.80
27779;DHT22;30234;48.090;11.464;2023-08-08T09:28:40;27.10;64.10
27779;DHT22;30234;48.090;11.464;2023-08-08T09:32:43;26.80;63.80
27779;DHT22;30234;48.090;11.464;2023-08-08T09:36:45;26.70;64.50
27779;DHT22;30234;48.090;11.464;2023-08-08T09:40:46;27.20;65.20
27779;DHT22;30234;48.090;11.464;2023-08-08T09:44:47;26.30;65.10
27779;DHT22;30234;48.090;11.464;2023-08-08T09:48:48;25.30;64.30
27779;DHT22;30234;48.090;11.464;2023-08-08T09:52:50;25.20;66.50
27779;DHT22;30234;48.090;11.464;2023-08-08T09:56:51;24.60;69.90
27779;DHT22;30234;48.090;11.464;2023-08-08T10:00:52;26.50;64.60
27779;DHT22;30234;48.090;11.464;2023-08-08T10:04:53;27.70;61.80
27779;DHT22;30234;48.090;11.464;2023-08-08T10:08:55;27.60;60.80
27779;DHT22;30234;48.090;11.464;2023-08-08T10:12:56;26.70;62.40
27779;DHT22;30234;48.090;11.464;2023-08-08T10:16:57;25.80;64.50
27779;DHT22;30234;48.090;11.464;2023-08-08T10:20:58;24.50;67.50
27779;DHT22;30234;48.090;11.464;2023-08-08T10:25:03;25.50;63.20
27779;DHT22;30234;48.090;11.464;2023-08-08T10:29:04;25.80;60.50
27779;DHT22;30234;48.090;11.464;2023-08-08T10:33:18;25.20;60.20
27779;DHT22;30234;48.090;11.464;2023-08-08T10:37:19;24.60;61.60
27779;DHT22;30234;48.090;11.464;2023-08-08T10:41:21;25.30;62.00
27779;DHT22;30234;48.090;11.464;2023-08-08T10:45:29;24.80;60.90
27779;DHT22;30234;48.090;11.464;2023-08-08T10:49:30;24.80;60.40
27779;DHT22;30234;48.090;11.464;2023-08-08T10:53:31;25.90;59.60
27779;DHT22;30234;48.090;11.464;2023-08-08T10:57:32;24.80;62.10
27779;DHT22;30234;48.090;11.464;2023-08-08T11:01:34;24.40;62.50
27779;DHT22;30234;48.090;11.464;2023-08-08T11:05:37;24.20;60.90
27779;DHT22;30234;48.090;11.464;2023-08-08T11:09:38;24.00;61.40
27779;DHT22;30234;48.090;11.464;2023-08-08T11:13:39;23.70;62.80
27779;DHT22;30234;48.090;11.464;2023-08-08T11:17:40;24.20;62.50
27779;DHT22;30234;48.090;11.464;2023-08-08T11:21:43;25.50;59.80
27779;DHT22;30234;48.090;11.464;2023-08-08T11:25:45;25.90;58.60
27779;DHT22;30234;48.090;11.464;2023-08-08T11:29:50;26.00;58.40
27779;DHT22;30234;48.090;11.464;2023-08-08T11:33:53;26.00;57.40
27779;DHT22;30234;48.090;11.464;2023-08-08T11:37:57;26.20;56.80
27779;DHT22;30234;48.090;11.464;2023-08-08T11:41:58;26.60;54.30
27779;DHT22;30234;48.090;11.464;2023-08-08T11:46:02;25.90;52.90
27779;DHT22;30234;48.090;11.464;2023-08-08T11:50:06;26.50;54.00
27779;DHT22;30234;48.090;11.464;2023-08-08T11:54:08;26.70;54.80
27779;DHT22;30234;48.090;11.464;2023-08-08T11:58:13;26.40;53.20
27779;DHT22;30234;48.090;11.464;2023-08-08T12:02:15;27.10;53.80
27779;DHT22;30234;48.090;11.464;2023-08-08T12:06:17;26.50;53.90
27779;DHT22;30234;48.090;11.464;2023-08-08T12:10:20;26.40;55.00
27779;DHT22;30234;48.090;11.464;2023-08-08T12:14:24;25.00;55.40
27779;DHT22;30234;48.090;11.464;2023-08-08T12:18:25;24.80;55.80
27779;DHT22;30234;48.090;11.464;2023-08-08T12:22:26;24.70;56.20
27779;DHT22;30234;48.090;11.464;2023-08-08T12:26:27;25.10;56.70
27779;DHT22;30234;48.090;11.464;2023-08-08T12:30:28;26.20;54.70
27779;DHT22;30234;48.090;11.464;2023-08-08T12:34:29;26.40;52.20
27779;DHT22;30234;48.090;11.464;2023-08-08T12:38:30;25.80;53.40
27779;DHT22;30234;48.090;11.464;2023-08-08T12:42:31;25.20;52.50
27779;DHT22;30234;48.090;11.464;2023-08-08T12:46:32;25.00;53.70
27779;DHT22;30234;48.090;11.464;2023-08-08T12:50:33;25.70;53.50
27779;DHT22;30234;48.090;11.464;2023-08-08T12:54:34;25.60;54.70
27779;DHT22;30234;48.090;11.464;2023-08-08T12:58:36;25.40;53.30
27779;DHT22;30234;48.090;11.464;2023-08-08T13:02:37;25.50;54.40
27779;DHT22;30234;48.090;11.464;2023-08-08T13:06:38;26.30;52.70
27779;DHT22;30234;48.090;11.464;2023-08-08T13:10:39;25.70;52.60
27779;DHT22;30234;48.090;11.464;2023-08-08T13:14:40;26.00;52.90
27779;DHT22;30234;48.090;11.464;2023-08-08T13:18:41;25.40;54.90
27779;DHT22;30234;48.090;11.464;2023-08-08T13:22:42;25.90;52.70
27779;DHT22;30234;48.090;11.464;2023-08-08T13:26:43;26.10;52.00
27779;DHT22;30234;48.090;11.464;2023-08-08T13:30:44;26.50;53.10
27779;DHT22;30234;48.090;11.464;2023-08-08T13:34:45;26.20;52.20
27779;DHT22;30234;48.090;11.464;2023-08-08T13:38:45;25.80;52.40
27779;DHT22;30234;48.090;11.464;2023-08-08T13:42:46;25.90;54.10
27779;DHT22;30234;48.090;11.464;2023-08-08T13:46:48;26.70;52.90
27779;DHT22;30234;48.090;11.464;2023-08-08T13:50:50;27.00;52.90
27779;DHT22;30234;48.090;11.464;2023-08-08T13:54:51;27.00;53.10
27779;DHT22;30234;48.090;11.464;2023-08-08T13:58:52;27.30;52.00
27779;DHT22;30234;48.090;11.464;2023-08-08T14:02:53;26.80;52.00
27779;DHT22;30234;48.090;11.464;2023-08-08T14:06:54;26.20;52.50
27779;DHT22;30234;48.090;11.464;2023-08-08T14:10:54;26.10;53.70
27779;DHT22;30234;48.090;11.464;2023-08-08T14:14:55;27.00;52.40
27779;DHT22;30234;48.090;11.464;2023-08-08T14:18:56;27.10;51.70
27779;DHT22;30234;48.090;11.464;2023-08-08T14:22:57;25.50;53.90
27779;DHT22;30234;48.090;11.464;2023-08-08T14:26:58;25.70;54.00
27779;DHT22;30234;48.090;11.464;2023-08-08T14:30:59;24.90;56.20
27779;DHT22;30234;48.090;11.464;2023-08-08T14:34:59;25.50;55.40
27779;DHT22;30234;48.090;11.464;2023-08-08T14:39:03;27.00;53.70
27779;DHT22;30234;48.090;11.464;2023-08-08T14:43:04;27.70;51.30
27779;DHT22;30234;48.090;11.464;2023-08-08T14:47:10;26.90;52.50
27779;DHT22;30234;48.090;11.464;2023-08-08T14:51:11;25.80;53.40
27779;DHT22;30234;48.090;11.464;2023-08-08T14:55:15;26.50;53.40
27779;DHT22;30234;48.090;11.464;2023-08-08T14:59:16;27.20;52.90
27779;DHT22;30234;48.090;11.464;2023-08-08T15:03:17;27.10;52.10
27779;DHT22;30234;48.090;11.464;2023-08-08T15:07:20;26.80;52.70
27779;DHT22;30234;48.090;11.464;2023-08-08T15:11:20;26.80;53.60
27779;DHT22;30234;48.090;11.464;2023-08-08T15:15:21;27.30;51.60
27779;DHT22;30234;48.090;11.464;2023-08-08T15:19:24;27.00;52.10
27779;DHT22;30234;48.090;11.464;2023-08-08T15:23:25;26.90;52.60
27779;DHT22;30234;48.090;11.464;2023-08-08T15:27:27;26.70;52.90
27779;DHT22;30234;48.090;11.464;2023-08-08T15:31:28;24.80;55.40
27779;DHT22;30234;48.090;11.464;2023-08-08T15:35:32;23.40;58.10
27779;DHT22;30234;48.090;11.464;2023-08-08T15:39:33;24.30;58.60
27779;DHT22;30234;48.090;11.464;2023-08-08T15:43:34;25.70;56.70
27779;DHT22;30234;48.090;11.464;2023-08-08T15:47:35;25.50;55.40
27779;DHT22;30234;48.090;11.464;2023-08-08T15:51:36;24.40;58.40
27779;DHT22;30234;48.090;11.464;2023-08-08T15:55:37;23.90;59.00
27779;DHT22;30234;48.090;11.464;2023-08-08T15:59:38;23.50;60.80
27779;DHT22;30234;48.090;11.464;2023-08-08T16:03:42;23.20;61.40
27779;DHT22;30234;48.090;11.464;2023-08-08T16:07:43;23.10;62.00
27779;DHT22;30234;48.090;11.464;2023-08-08T16:11:44;23.20;62.00
27779;DHT22;30234;48.090;11.464;2023-08-08T16:15:45;24.10;60.60
27779;DHT22;30234;48.090;11.464;2023-08-08T16:19:47;24.50;59.00
27779;DHT22;30234;48.090;11.464;2023-08-08T16:23:48;24.40;59.90
27779;DHT22;30234;48.090;11.464;2023-08-08T16:27:48;24.20;59.40
27779;DHT22;30234;48.090;11.464;2023-08-08T16:31:49;23.50;60.60
27779;DHT22;30234;48.090;11.464;2023-08-08T16:35:50;23.30;62.00
27779;DHT22;30234;48.090;11.464;2023-08-08T16:39:51;23.00;62.80
27779;DHT22;30234;48.090;11.464;2023-08-08T16:44:01;22.60;62.90
27779;DHT22;30234;48.090;11.464;2023-08-08T16:48:03;22.40;64.60
27779;DHT22;30234;48.090;11.464;2023-08-08T16:52:04;22.00;65.30
27779;DHT22;30234;48.090;11.464;2023-08-08T16:56:05;21.80;65.80
27779;DHT22;30234;48.090;11.464;2023-08-08T17:00:07;21.60;67.00
27779;DHT22;30234;48.090;11.464;2023-08-08T17:04:09;21.40;67.90
27779;DHT22;30234;48.090;11.464;2023-08-08T17:08:11;21.90;66.50
27779;DHT22;30234;48.090;11.464;2023-08-08T17:12:12;22.30;66.10
27779;DHT22;30234;48.090;11.464;2023-08-08T17:16:13;22.10;66.40
27779;DHT22;30234;48.090;11.464;2023-08-08T17:20:13;21.70;68.40
27779;DHT22;30234;48.090;11.464;2023-08-08T17:24:14;21.60;68.90
27779;DHT22;30234;48.090;11.464;2023-08-08T17:28:17;21.20;70.90
27779;DHT22;30234;48.090;11.464;2023-08-08T17:32:17;20.80;71.70
27779;DHT22;30234;48.090;11.464;2023-08-08T17:36:18;20.50;73.10
27779;DHT22;30234;48.090;11.464;2023-08-08T17:40:19;20.20;74.00
27779;DHT22;30234;48.090;11.464;2023-08-08T17:44:20;20.00;74.90
27779;DHT22;30234;48.090;11.464;2023-08-08T17:48:21;19.80;75.90
27779;DHT22;30234;48.090;11.464;2023-08-08T17:52:22;19.90;75.70
27779;DHT22;30234;48.090;11.464;2023-08-08T17:56:23;19.70;76.50
27779;DHT22;30234;48.090;11.464;2023-08-08T18:00:24;19.50;77.40
27779;DHT22;30234;48.090;11.464;2023-08-08T18:04:25;19.30;78.70
27779;DHT22;30234;48.090;11.464;2023-08-08T18:08:26;19.00;79.90
27779;DHT22;30234;48.090;11.464;2023-08-08T18:12:27;18.80;80.50
27779;DHT22;30234;48.090;11.464;2023-08-08T18:16:28;18.50;81.70
27779;DHT22;30234;48.090;11.464;2023-08-08T18:20:29;18.30;82.60
27779;DHT22;30234;48.090;11.464;2023-08-08T18:24:30;18.10;83.80
27779;DHT22;30234;48.090;11.464;2023-08-08T18:28:31;17.70;85.80
27779;DHT22;30234;48.090;11.464;2023-08-08T18:32:32;17.60;87.20
27779;DHT22;30234;48.090;11.464;2023-08-08T18:36:33;17.20;88.70
27779;DHT22;30234;48.090;11.464;2023-08-08T18:40:35;16.80;90.20
27779;DHT22;30234;48.090;11.464;2023-08-08T18:44:36;16.60;90.90
27779;DHT22;30234;48.090;11.464;2023-08-08T18:48:37;16.40;91.70
27779;DHT22;30234;48.090;11.464;2023-08-08T18:52:38;16.20;92.60
27779;DHT22;30234;48.090;11.464;2023-08-08T18:56:39;16.10;93.30
27779;DHT22;30234;48.090;11.464;2023-08-08T19:00:40;16.10;93.70
27779;DHT22;30234;48.090;11.464;2023-08-08T19:04:41;16.00;94.20
27779;DHT22;30234;48.090;11.464;2023-08-08T19:08:42;16.10;94.30
27779;DHT22;30234;48.090;11.464;2023-08-08T19:12:43;16.10;94.50
27779;DHT22;30234;48.090;11.464;2023-08-08T19:16:44;16.10;94.60
27779;DHT22;30234;48.090;11.464;2023-08-08T19:20:45;16.20;94.70
27779;DHT22;30234;48.090;11.464;2023-08-08T19:24:47;16.20;94.50
27779;DHT22;30234;48.090;11.464;2023-08-08T19:28:50;16.30;94.50
27779;DHT22;30234;48.090;11.464;2023-08-08T19:32:51;16.20;94.60
27779;DHT22;30234;48.090;11.464;2023-08-08T19:36:52;16.10;95.20
27779;DHT22;30234;48.090;11.464;2023-08-08T19:40:52;16.30;94.90
27779;DHT22;30234;48.090;11.464;2023-08-08T19:44:54;16.70;94.30
27779;DHT22;30234;48.090;11.464;2023-08-08T19:48:55;16.80;94.00
27779;DHT22;30234;48.090;11.464;2023-08-08T19:52:56;17.00;93.50
27779;DHT22;30234;48.090;11.464;2023-08-08T19:56:57;17.20;93.10
27779;DHT22;30234;48.090;11.464;2023-08-08T20:00:57;17.20;93.10
27779;DHT22;30234;48.090;11.464;2023-08-08T20:04:58;17.20;93.00
27779;DHT22;30234;48.090;11.464;2023-08-08T20:08:59;17.20;92.80
27779;DHT22;30234;48.090;11.464;2023-08-08T20:13:02;17.10;92.90
27779;DHT22;30234;48.090;11.464;2023-08-08T20:17:03;17.00;93.10
27779;DHT22;30234;48.090;11.464;2023-08-08T20:21:04;17.00;93.10
27779;DHT22;30234;48.090;11.464;2023-08-08T20:25:05;16.90;93.10
27779;DHT22;30234;48.090;11.464;2023-08-08T20:29:06;16.70;93.50
27779;DHT22;30234;48.090;11.464;2023-08-08T20:33:07;16.50;94.00
27779;DHT22;30234;48.090;11.464;2023-08-08T20:37:08;16.30;94.50
27779;DHT22;30234;48.090;11.464;2023-08-08T20:41:10;16.10;95.10
27779;DHT22;30234;48.090;11.464;2023-08-08T20:45:11;15.90;95.70
27779;DHT22;30234;48.090;11.464;2023-08-08T20:49:12;15.80;96.00
27779;DHT22;30234;48.090;11.464;2023-08-08T20:53:13;15.80;96.20
27779;DHT22;30234;48.090;11.464;2023-08-08T20:57:14;15.80;96.30
27779;DHT22;30234;48.090;11.464;2023-08-08T21:01:15;15.80;96.40
27779;DHT22;30234;48.090;11.464;2023-08-08T21:05:16;15.70;96.70
27779;DHT22;30234;48.090;11.464;2023-08-08T21:09:16;15.60;97.30
27779;DHT22;30234;48.090;11.464;2023-08-08T21:13:17;15.50;97.60
27779;DHT22;30234;48.090;11.464;2023-08-08T21:17:18;15.40;97.90
27779;DHT22;30234;48.090;11.464;2023-08-08T21:21:19;15.30;98.20
27779;DHT22;30234;48.090;11.464;2023-08-08T21:25:20;15.20;98.80
27779;DHT22;30234;48.090;11.464;2023-08-08T21:29:21;15.10;99.10
27779;DHT22;30234;48.090;11.464;2023-08-08T21:33:22;15.10;99.40
27779;DHT22;30234;48.090;11.464;2023-08-08T21:37:22;15.00;99.90
27779;DHT22;30234;48.090;11.464;2023-08-08T21:41:24;14.80;99.90
27779;DHT22;30234;48.090;11.464;2023-08-08T21:45:25;14.80;99.90
27779;DHT22;30234;48.090;11.464;2023-08-08T21:49:25;14.70;99.90
27779;DHT22;30234;48.090;11.464;2023-08-08T21:53:26;14.70;99.90
27779;DHT22;30234;48.090;11.464;2023-08-08T21:57:27;14.60;99.90
27779;DHT22;30234;48.090;11.464;2023-08-08T22:01:28;14.20;99.90
27779;DHT22;30234;48.090;11.464;2023-08-08T22:05:29;13.90;99.90
27779;DHT22;30234;48.090;11.464;2023-08-08T22:09:30;13.80;99.90
27779;DHT22;30234;48.090;11.464;2023-08-08T22:13:31;13.60;99.90
27779;DHT22;30234;48.090;11.464;2023-08-08T22:17:32;13.50;99.90
27779;DHT22;30234;48.090;11.464;2023-08-08T22:21:32;13.30;99.90
27779;DHT22;30234;48.090;11.464;2023-08-08T22:25:33;13.10;99.90
27779;DHT22;30234;48.090;11.464;2023-08-08T22:29:34;13.00;99.90
27779;DHT22;30234;48.090;11.464;2023-08-08T22:33:35;12.80;99.90
27779;DHT22;30234;48.090;11.464;2023-08-08T22:37:36;12.70;99.90
27779;DHT22;30234;48.090;11.464;2023-08-08T22:41:37;12.60;99.90
27779;DHT22;30234;48.090;11.464;2023-08-08T22:45:38;12.50;99.90
27779;DHT22;30234;48.090;11.464;2023-08-08T22:49:39;12.50;99.90
27779;DHT22;30234;48.090;11.464;2023-08-08T22:53:40;12.50;99.90
27779;DHT22;30234;48.090;11.464;2023-08-08T22:57:43;12.40;99.90
27779;DHT22;30234;48.090;11.464;2023-08-08T23:01:43;12.40;99.90
27779;DHT22;30234;48.090;11.464;2023-08-08T23:05:44;12.40;99.90
27779;DHT22;30234;48.090;11.464;2023-08-08T23:09:45;12.40;99.90
27779;DHT22;30234;48.090;11.464;2023-08-08T23:13:48;12.30;99.90
27779;DHT22;30234;48.090;11.464;2023-08-08T23:17:49;12.50;99.90
27779;DHT22;30234;48.090;11.464;2023-08-08T23:21:50;12.40;99.90
27779;DHT22;30234;48.090;11.464;2023-08-08T23:25:51;12.30;99.90
27779;DHT22;30234;48.090;11.464;2023-08-08T23:29:52;12.30;99.90
27779;DHT22;30234;48.090;11.464;2023-08-08T23:33:53;12.30;99.90
27779;DHT22;30234;48.090;11.464;2023-08-08T23:37:55;12.10;99.90
27779;DHT22;30234;48.090;11.464;2023-08-08T23:41:56;12.00;99.90
27779;DHT22;30234;48.090;11.464;2023-08-08T23:45:57;11.90;99.90
27779;DHT22;30234;48.090;11.464;2023-08-08T23:49:59;11.80;99.90
27779;DHT22;30234;48.090;11.464;2023-08-08T23:54:01;11.90;99.90
27779;DHT22;30234;48.090;11.464;2023-08-08T23:58:03;11.90;99.90
